SHMÚ vydal hydrologické výstrahy na   Povodeň Zobraziť výstrahy

METAR

Letisková meteorologická správa METAR

Meteorologické informácie z ďalších profesionálnych meteorologických staníc SHMÚ zobrazené v tvare zodpovedajúcom pravidlám kódovania správ METAR sú uvedené v položke „METSYN

Informácie o správe METAR

22.10.2020 - 12:30 UTC

METAR LZIB 221230Z 06004KT 9999 SCT022 14/08 Q1020 NOSIG=
METAR LZKZ 221230Z 18007KT 150V210 CAVOK 16/08 Q1021 NOSIG=
METAR LZPP 221230Z 18008KT 150V210 9999 FEW030 16/08 Q1020=
METAR LZSL 221230Z 14006KT 100V180 9999 FEW045 16/08 Q1021=
METAR LZTT 221230Z 13007KT 100V170 CAVOK 14/07 Q1020 NOSIG=
METAR LZZI 221230Z 24008KT CAVOK 17/09 Q1019=

22.10.2020 - 12:00 UTC

METAR LZIB 221200Z VRB03KT 9999 SCT023 15/09 Q1020 NOSIG=
METAR LZKZ 221200Z 17005KT 130V210 CAVOK 16/09 Q1021 NOSIG=
METAR LZPP 221200Z 17009KT 130V200 9999 FEW030 16/08 Q1020=
METAR LZSL 221200Z 14006KT 100V170 9999 FEW042 16/08 Q1021=
METAR LZTT 221200Z 14006KT 090V180 CAVOK 15/07 Q1020 NOSIG=
METAR LZZI 221200Z 26006KT CAVOK 16/09 Q1019=

22.10.2020 - 12:00 UTC

METAR LZMC 221200Z 20004KT 9999 SCT027 BKN200 16/09
Q1021=
METAR LZPW 221200Z 17010KT CAVOK 16/07 Q1021=

skok na menu ↑


skok na začiatok stránky ↑